sensor_id;sensor_type;location;lat;lon;timestamp;temperature;humidity
1015;DHT22;8170;48.118;11.628;2023-04-03T00:00:16;1.90;99.90
1015;DHT22;8170;48.118;11.628;2023-04-03T00:01:19;1.90;99.90
1015;DHT22;8170;48.118;11.628;2023-04-03T00:02:22;1.80;99.90
1015;DHT22;8170;48.118;11.628;2023-04-03T00:03:24;1.90;99.90
1015;DHT22;8170;48.118;11.628;2023-04-03T00:04:28;1.90;99.90
1015;DHT22;8170;48.118;11.628;2023-04-03T00:05:32;1.90;99.90
1015;DHT22;8170;48.118;11.628;2023-04-03T00:06:35;1.90;99.90
1015;DHT22;8170;48.118;11.628;2023-04-03T00:07:38;1.90;99.90
1015;DHT22;8170;48.118;11.628;2023-04-03T00:08:41;2.00;99.90
1015;DHT22;8170;48.118;11.628;2023-04-03T00:09:44;2.00;99.90
1015;DHT22;8170;48.118;11.628;2023-04-03T00:10:47;2.00;99.90
1015;DHT22;8170;48.118;11.628;2023-04-03T00:11:50;1.90;99.90
1015;DHT22;8170;48.118;11.628;2023-04-03T00:12:52;1.90;99.90
1015;DHT22;8170;48.118;11.628;2023-04-03T00:13:56;1.90;99.90
1015;DHT22;8170;48.118;11.628;2023-04-03T00:14:58;1.90;99.90
1015;DHT22;8170;48.118;11.628;2023-04-03T00:16:01;1.90;99.90
1015;DHT22;8170;48.118;11.628;2023-04-03T00:17:05;1.90;99.90
1015;DHT22;8170;48.118;11.628;2023-04-03T00:18:09;1.90;99.90
1015;DHT22;8170;48.118;11.628;2023-04-03T00:19:11;1.90;99.90
1015;DHT22;8170;48.118;11.628;2023-04-03T00:20:14;1.90;99.90
1015;DHT22;8170;48.118;11.628;2023-04-03T00:21:17;1.90;99.90
1015;DHT22;8170;48.118;11.628;2023-04-03T00:22:21;1.90;99.90
1015;DHT22;8170;48.118;11.628;2023-04-03T00:23:23;1.90;99.90
1015;DHT22;8170;48.118;11.628;2023-04-03T00:24:27;1.90;99.90
1015;DHT22;8170;48.118;11.628;2023-04-03T00:25:29;1.90;99.90
1015;DHT22;8170;48.118;11.628;2023-04-03T00:26:32;1.90;99.90
1015;DHT22;8170;48.118;11.628;2023-04-03T00:27:36;1.90;99.90
1015;DHT22;8170;48.118;11.628;2023-04-03T00:28:39;1.90;99.90
1015;DHT22;8170;48.118;11.628;2023-04-03T00:29:41;1.90;99.90
1015;DHT22;8170;48.118;11.628;2023-04-03T00:30:44;1.90;99.90
1015;DHT22;8170;48.118;11.628;2023-04-03T00:31:47;2.00;99.90
1015;DHT22;8170;48.118;11.628;2023-04-03T00:32:51;2.00;99.90
1015;DHT22;8170;48.118;11.628;2023-04-03T00:33:54;2.00;99.90
1015;DHT22;8170;48.118;11.628;2023-04-03T00:34:57;2.00;99.90
1015;DHT22;8170;48.118;11.628;2023-04-03T00:35:59;2.00;99.90
1015;DHT22;8170;48.118;11.628;2023-04-03T00:37:07;2.00;99.90
1015;DHT22;8170;48.118;11.628;2023-04-03T00:38:11;2.00;99.90
1015;DHT22;8170;48.118;11.628;2023-04-03T00:39:14;2.00;99.90
1015;DHT22;8170;48.118;11.628;2023-04-03T00:40:17;2.00;99.90
1015;DHT22;8170;48.118;11.628;2023-04-03T00:41:20;2.00;99.90
1015;DHT22;8170;48.118;11.628;2023-04-03T00:42:23;2.00;99.90
1015;DHT22;8170;48.118;11.628;2023-04-03T00:43:26;2.10;99.90
1015;DHT22;8170;48.118;11.628;2023-04-03T00:46:09;2.00;99.90
1015;DHT22;8170;48.118;11.628;2023-04-03T00:47:15;2.00;99.90
1015;DHT22;8170;48.118;11.628;2023-04-03T00:48:20;2.00;99.90
1015;DHT22;8170;48.118;11.628;2023-04-03T00:49:24;2.00;99.90
1015;DHT22;8170;48.118;11.628;2023-04-03T00:50:28;2.00;99.90
1015;DHT22;8170;48.118;11.628;2023-04-03T00:51:32;1.90;99.90
1015;DHT22;8170;48.118;11.628;2023-04-03T00:52:37;1.90;99.90
1015;DHT22;8170;48.118;11.628;2023-04-03T00:53:46;1.90;99.90
1015;DHT22;8170;48.118;11.628;2023-04-03T00:54:52;1.90;99.90
1015;DHT22;8170;48.118;11.628;2023-04-03T00:55:57;1.90;99.90
1015;DHT22;8170;48.118;11.628;2023-04-03T00:57:01;1.90;99.90
1015;DHT22;8170;48.118;11.628;2023-04-03T00:58:03;1.90;99.90
1015;DHT22;8170;48.118;11.628;2023-04-03T00:59:12;1.90;99.90
1015;DHT22;8170;48.118;11.628;2023-04-03T01:00:19;1.90;99.90
1015;DHT22;8170;48.118;11.628;2023-04-03T01:01:24;1.90;99.90
1015;DHT22;8170;48.118;11.628;2023-04-03T01:02:28;1.90;99.90
1015;DHT22;8170;48.118;11.628;2023-04-03T01:03:31;1.90;99.90
1015;DHT22;8170;48.118;11.628;2023-04-03T01:04:38;1.90;99.90
1015;DHT22;8170;48.118;11.628;2023-04-03T01:05:41;1.90;99.90
1015;DHT22;8170;48.118;11.628;2023-04-03T01:06:44;1.90;99.90
1015;DHT22;8170;48.118;11.628;2023-04-03T01:07:47;1.90;99.90
1015;DHT22;8170;48.118;11.628;2023-04-03T01:08:54;1.90;99.90
1015;DHT22;8170;48.118;11.628;2023-04-03T01:09:58;2.00;99.90
1015;DHT22;8170;48.118;11.628;2023-04-03T01:11:02;1.90;99.90
1015;DHT22;8170;48.118;11.628;2023-04-03T01:12:15;1.90;99.90
1015;DHT22;8170;48.118;11.628;2023-04-03T01:13:21;1.90;99.90
1015;DHT22;8170;48.118;11.628;2023-04-03T01:14:24;1.90;99.90
1015;DHT22;8170;48.118;11.628;2023-04-03T01:15:28;1.90;99.90
1015;DHT22;8170;48.118;11.628;2023-04-03T01:16:32;1.90;99.90
1015;DHT22;8170;48.118;11.628;2023-04-03T01:17:39;1.90;99.90
1015;DHT22;8170;48.118;11.628;2023-04-03T01:18:42;1.90;99.90
1015;DHT22;8170;48.118;11.628;2023-04-03T01:19:56;1.90;99.90
1015;DHT22;8170;48.118;11.628;2023-04-03T01:22:40;1.90;99.90
1015;DHT22;8170;48.118;11.628;2023-04-03T01:23:58;1.90;99.90
1015;DHT22;8170;48.118;11.628;2023-04-03T01:25:03;2.00;99.90
1015;DHT22;8170;48.118;11.628;2023-04-03T01:26:05;2.00;99.90
1015;DHT22;8170;48.118;11.628;2023-04-03T01:27:10;2.00;99.90
1015;DHT22;8170;48.118;11.628;2023-04-03T01:28:15;2.00;99.90
1015;DHT22;8170;48.118;11.628;2023-04-03T01:29:19;2.00;99.90
1015;DHT22;8170;48.118;11.628;2023-04-03T01:30:25;2.10;99.90
1015;DHT22;8170;48.118;11.628;2023-04-03T01:31:40;2.00;99.90
1015;DHT22;8170;48.118;11.628;2023-04-03T01:32:43;2.10;99.90
1015;DHT22;8170;48.118;11.628;2023-04-03T01:33:47;2.10;99.90
1015;DHT22;8170;48.118;11.628;2023-04-03T01:34:49;2.10;99.90
1015;DHT22;8170;48.118;11.628;2023-04-03T01:35:56;2.10;99.90
1015;DHT22;8170;48.118;11.628;2023-04-03T01:36:58;2.10;99.90
1015;DHT22;8170;48.118;11.628;2023-04-03T01:38:02;2.10;99.90
1015;DHT22;8170;48.118;11.628;2023-04-03T01:39:04;2.10;99.90
1015;DHT22;8170;48.118;11.628;2023-04-03T01:40:10;2.00;99.90
1015;DHT22;8170;48.118;11.628;2023-04-03T01:41:13;2.10;99.90
1015;DHT22;8170;48.118;11.628;2023-04-03T01:42:18;2.00;99.90
1015;DHT22;8170;48.118;11.628;2023-04-03T01:43:20;2.00;99.90
1015;DHT22;8170;48.118;11.628;2023-04-03T01:44:27;2.00;99.90
1015;DHT22;8170;48.118;11.628;2023-04-03T01:45:29;2.00;99.90
1015;DHT22;8170;48.118;11.628;2023-04-03T01:46:33;2.10;99.90
1015;DHT22;8170;48.118;11.628;2023-04-03T01:47:36;2.10;99.90
1015;DHT22;8170;48.118;11.628;2023-04-03T01:48:40;2.10;99.90
1015;DHT22;8170;48.118;11.628;2023-04-03T01:49:42;2.00;99.90
1015;DHT22;8170;48.118;11.628;2023-04-03T01:50:46;2.10;99.90
1015;DHT22;8170;48.118;11.628;2023-04-03T01:51:48;2.10;99.90
1015;DHT22;8170;48.118;11.628;2023-04-03T01:52:51;2.10;99.90
1015;DHT22;8170;48.118;11.628;2023-04-03T01:53:53;2.10;99.90
1015;DHT22;8170;48.118;11.628;2023-04-03T01:54:57;2.10;99.90
1015;DHT22;8170;48.118;11.628;2023-04-03T01:55:59;2.10;99.90
1015;DHT22;8170;48.118;11.628;2023-04-03T01:57:02;2.20;99.90
1015;DHT22;8170;48.118;11.628;2023-04-03T01:58:05;2.20;99.90
1015;DHT22;8170;48.118;11.628;2023-04-03T01:59:09;2.20;99.90
1015;DHT22;8170;48.118;11.628;2023-04-03T02:00:13;2.20;99.90
1015;DHT22;8170;48.118;11.628;2023-04-03T02:01:16;2.10;99.90
1015;DHT22;8170;48.118;11.628;2023-04-03T02:02:18;2.20;99.90
1015;DHT22;8170;48.118;11.628;2023-04-03T02:03:23;2.20;99.90
1015;DHT22;8170;48.118;11.628;2023-04-03T02:04:25;2.10;99.90
1015;DHT22;8170;48.118;11.628;2023-04-03T02:05:29;2.10;99.90
1015;DHT22;8170;48.118;11.628;2023-04-03T02:06:31;2.20;99.90
1015;DHT22;8170;48.118;11.628;2023-04-03T02:07:34;2.10;99.90
1015;DHT22;8170;48.118;11.628;2023-04-03T02:08:36;2.20;99.90
1015;DHT22;8170;48.118;11.628;2023-04-03T02:09:40;2.20;99.90
1015;DHT22;8170;48.118;11.628;2023-04-03T02:10:43;2.20;99.90
1015;DHT22;8170;48.118;11.628;2023-04-03T02:11:46;2.20;99.90
1015;DHT22;8170;48.118;11.628;2023-04-03T02:12:49;2.20;99.90
1015;DHT22;8170;48.118;11.628;2023-04-03T02:13:52;2.30;99.90
1015;DHT22;8170;48.118;11.628;2023-04-03T02:14:55;2.20;99.90
1015;DHT22;8170;48.118;11.628;2023-04-03T02:15:57;2.30;99.90
1015;DHT22;8170;48.118;11.628;2023-04-03T02:17:01;2.30;99.90
1015;DHT22;8170;48.118;11.628;2023-04-03T02:18:07;2.30;99.90
1015;DHT22;8170;48.118;11.628;2023-04-03T02:19:11;2.30;99.90
1015;DHT22;8170;48.118;11.628;2023-04-03T02:20:14;2.30;99.90
1015;DHT22;8170;48.118;11.628;2023-04-03T02:21:18;2.30;99.90
1015;DHT22;8170;48.118;11.628;2023-04-03T02:22:22;2.30;99.90
1015;DHT22;8170;48.118;11.628;2023-04-03T02:23:25;2.30;99.90
1015;DHT22;8170;48.118;11.628;2023-04-03T02:24:27;2.30;99.90
1015;DHT22;8170;48.118;11.628;2023-04-03T02:25:31;2.30;99.90
1015;DHT22;8170;48.118;11.628;2023-04-03T02:26:33;2.30;99.90
1015;DHT22;8170;48.118;11.628;2023-04-03T02:27:37;2.30;99.90
1015;DHT22;8170;48.118;11.628;2023-04-03T02:28:39;2.30;99.90
1015;DHT22;8170;48.118;11.628;2023-04-03T02:29:43;2.30;99.90
1015;DHT22;8170;48.118;11.628;2023-04-03T02:30:46;2.30;99.90
1015;DHT22;8170;48.118;11.628;2023-04-03T02:31:49;2.40;99.90
1015;DHT22;8170;48.118;11.628;2023-04-03T02:32:52;2.40;99.90
1015;DHT22;8170;48.118;11.628;2023-04-03T02:33:55;2.30;99.90
1015;DHT22;8170;48.118;11.628;2023-04-03T02:34:59;2.30;99.90
1015;DHT22;8170;48.118;11.628;2023-04-03T02:36:04;2.30;99.90
1015;DHT22;8170;48.118;11.628;2023-04-03T02:37:06;2.30;99.90
1015;DHT22;8170;48.118;11.628;2023-04-03T02:38:10;2.30;99.90
1015;DHT22;8170;48.118;11.628;2023-04-03T02:39:12;2.30;99.90
1015;DHT22;8170;48.118;11.628;2023-04-03T02:40:15;2.30;99.90
1015;DHT22;8170;48.118;11.628;2023-04-03T02:41:18;2.30;99.90
1015;DHT22;8170;48.118;11.628;2023-04-03T02:42:23;2.30;99.90
1015;DHT22;8170;48.118;11.628;2023-04-03T02:43:26;2.30;99.90
1015;DHT22;8170;48.118;11.628;2023-04-03T02:44:29;2.30;99.90
1015;DHT22;8170;48.118;11.628;2023-04-03T02:45:32;2.20;99.90
1015;DHT22;8170;48.118;11.628;2023-04-03T02:46:36;2.20;99.90
1015;DHT22;8170;48.118;11.628;2023-04-03T02:47:38;2.20;99.90
1015;DHT22;8170;48.118;11.628;2023-04-03T02:48:41;2.20;99.90
1015;DHT22;8170;48.118;11.628;2023-04-03T02:49:44;2.20;99.90
1015;DHT22;8170;48.118;11.628;2023-04-03T02:50:49;2.20;99.90
1015;DHT22;8170;48.118;11.628;2023-04-03T02:51:51;2.20;99.90
1015;DHT22;8170;48.118;11.628;2023-04-03T02:52:54;2.20;99.90
1015;DHT22;8170;48.118;11.628;2023-04-03T02:53:56;2.20;99.90
1015;DHT22;8170;48.118;11.628;2023-04-03T02:55:04;2.20;99.90
1015;DHT22;8170;48.118;11.628;2023-04-03T02:56:07;2.20;99.90
1015;DHT22;8170;48.118;11.628;2023-04-03T02:57:10;2.20;99.90
1015;DHT22;8170;48.118;11.628;2023-04-03T02:58:12;2.20;99.90
1015;DHT22;8170;48.118;11.628;2023-04-03T02:59:16;2.20;99.90
1015;DHT22;8170;48.118;11.628;2023-04-03T03:00:19;2.20;99.90
1015;DHT22;8170;48.118;11.628;2023-04-03T03:01:22;2.20;99.90
1015;DHT22;8170;48.118;11.628;2023-04-03T03:02:25;2.30;99.90
1015;DHT22;8170;48.118;11.628;2023-04-03T03:03:28;2.30;99.90
1015;DHT22;8170;48.118;11.628;2023-04-03T03:04:30;2.20;99.90
1015;DHT22;8170;48.118;11.628;2023-04-03T03:05:33;2.20;99.90
1015;DHT22;8170;48.118;11.628;2023-04-03T03:07:40;2.20;99.90
1015;DHT22;8170;48.118;11.628;2023-04-03T03:08:43;2.20;99.90
1015;DHT22;8170;48.118;11.628;2023-04-03T03:09:46;2.20;99.90
1015;DHT22;8170;48.118;11.628;2023-04-03T03:10:48;2.30;99.90
1015;DHT22;8170;48.118;11.628;2023-04-03T03:11:53;2.30;99.90
1015;DHT22;8170;48.118;11.628;2023-04-03T03:12:55;2.30;99.90
1015;DHT22;8170;48.118;11.628;2023-04-03T03:13:58;2.20;99.90
1015;DHT22;8170;48.118;11.628;2023-04-03T03:15:00;2.20;99.90
1015;DHT22;8170;48.118;11.628;2023-04-03T03:16:04;2.20;99.90
1015;DHT22;8170;48.118;11.628;2023-04-03T03:17:07;2.20;99.90
1015;DHT22;8170;48.118;11.628;2023-04-03T03:18:10;2.20;99.90
1015;DHT22;8170;48.118;11.628;2023-04-03T03:19:12;2.20;99.90
1015;DHT22;8170;48.118;11.628;2023-04-03T03:20:16;2.30;99.90
1015;DHT22;8170;48.118;11.628;2023-04-03T03:21:19;2.20;99.90
1015;DHT22;8170;48.118;11.628;2023-04-03T03:22:22;2.20;99.90
1015;DHT22;8170;48.118;11.628;2023-04-03T03:23:26;2.20;99.90
1015;DHT22;8170;48.118;11.628;2023-04-03T03:24:30;2.20;99.90
1015;DHT22;8170;48.118;11.628;2023-04-03T03:25:33;2.20;99.90
1015;DHT22;8170;48.118;11.628;2023-04-03T03:27:39;2.20;99.90
1015;DHT22;8170;48.118;11.628;2023-04-03T03:28:41;2.30;99.90
1015;DHT22;8170;48.118;11.628;2023-04-03T03:29:46;2.30;99.90
1015;DHT22;8170;48.118;11.628;2023-04-03T03:30:48;2.20;99.90
1015;DHT22;8170;48.118;11.628;2023-04-03T03:31:52;2.20;99.90
1015;DHT22;8170;48.118;11.628;2023-04-03T03:32:54;2.20;99.90
1015;DHT22;8170;48.118;11.628;2023-04-03T03:33:57;2.20;99.90
1015;DHT22;8170;48.118;11.628;2023-04-03T03:35:00;2.20;99.90
1015;DHT22;8170;48.118;11.628;2023-04-03T03:36:03;2.30;99.90
1015;DHT22;8170;48.118;11.628;2023-04-03T03:37:05;2.30;99.90
1015;DHT22;8170;48.118;11.628;2023-04-03T03:38:08;2.30;99.90
1015;DHT22;8170;48.118;11.628;2023-04-03T03:39:13;2.30;99.90
1015;DHT22;8170;48.118;11.628;2023-04-03T03:40:16;2.30;99.90
1015;DHT22;8170;48.118;11.628;2023-04-03T03:41:19;2.30;99.90
1015;DHT22;8170;48.118;11.628;2023-04-03T03:42:22;2.30;99.90
1015;DHT22;8170;48.118;11.628;2023-04-03T03:43:25;2.30;99.90
1015;DHT22;8170;48.118;11.628;2023-04-03T03:44:28;2.30;99.90
1015;DHT22;8170;48.118;11.628;2023-04-03T03:45:32;2.30;99.90
1015;DHT22;8170;48.118;11.628;2023-04-03T03:47:41;2.30;99.90
1015;DHT22;8170;48.118;11.628;2023-04-03T03:48:43;2.30;99.90
1015;DHT22;8170;48.118;11.628;2023-04-03T03:49:53;2.20;99.90
1015;DHT22;8170;48.118;11.628;2023-04-03T03:50:57;2.30;99.90
1015;DHT22;8170;48.118;11.628;2023-04-03T03:52:04;2.30;99.90
1015;DHT22;8170;48.118;11.628;2023-04-03T03:53:07;2.30;99.90
1015;DHT22;8170;48.118;11.628;2023-04-03T03:54:10;2.20;99.90
1015;DHT22;8170;48.118;11.628;2023-04-03T03:55:15;2.20;99.90
1015;DHT22;8170;48.118;11.628;2023-04-03T03:56:17;2.20;99.90
1015;DHT22;8170;48.118;11.628;2023-04-03T03:57:21;2.20;99.90
1015;DHT22;8170;48.118;11.628;2023-04-03T03:58:23;2.20;99.90
1015;DHT22;8170;48.118;11.628;2023-04-03T03:59:26;2.20;99.90
1015;DHT22;8170;48.118;11.628;2023-04-03T04:00:28;2.20;99.90
1015;DHT22;8170;48.118;11.628;2023-04-03T04:01:32;2.20;99.90
1015;DHT22;8170;48.118;11.628;2023-04-03T04:02:35;2.20;99.90
1015;DHT22;8170;48.118;11.628;2023-04-03T04:03:39;2.20;99.90
1015;DHT22;8170;48.118;11.628;2023-04-03T04:04:43;2.20;99.90
1015;DHT22;8170;48.118;11.628;2023-04-03T04:05:46;2.30;99.90
1015;DHT22;8170;48.118;11.628;2023-04-03T04:06:48;2.20;99.90
1015;DHT22;8170;48.118;11.628;2023-04-03T04:07:52;2.20;99.90
1015;DHT22;8170;48.118;11.628;2023-04-03T04:08:54;2.30;99.90
1015;DHT22;8170;48.118;11.628;2023-04-03T04:09:57;2.30;99.90
1015;DHT22;8170;48.118;11.628;2023-04-03T04:11:00;2.20;99.90
1015;DHT22;8170;48.118;11.628;2023-04-03T04:12:04;2.20;99.90
1015;DHT22;8170;48.118;11.628;2023-04-03T04:13:08;2.20;99.90
1015;DHT22;8170;48.118;11.628;2023-04-03T04:14:10;2.20;99.90
1015;DHT22;8170;48.118;11.628;2023-04-03T04:15:16;2.20;99.90
1015;DHT22;8170;48.118;11.628;2023-04-03T04:16:18;2.30;99.90
1015;DHT22;8170;48.118;11.628;2023-04-03T04:17:21;2.30;99.90
1015;DHT22;8170;48.118;11.628;2023-04-03T04:18:23;2.30;99.90
1015;DHT22;8170;48.118;11.628;2023-04-03T04:19:27;2.30;99.90
1015;DHT22;8170;48.118;11.628;2023-04-03T04:20:29;2.30;99.90
1015;DHT22;8170;48.118;11.628;2023-04-03T04:21:32;2.20;99.90
1015;DHT22;8170;48.118;11.628;2023-04-03T04:22:34;2.30;99.90
1015;DHT22;8170;48.118;11.628;2023-04-03T04:23:37;2.20;99.90
1015;DHT22;8170;48.118;11.628;2023-04-03T04:24:39;2.30;99.90
1015;DHT22;8170;48.118;11.628;2023-04-03T04:25:44;2.30;99.90
1015;DHT22;8170;48.118;11.628;2023-04-03T04:26:49;2.30;99.90
1015;DHT22;8170;48.118;11.628;2023-04-03T04:27:53;2.30;99.90
1015;DHT22;8170;48.118;11.628;2023-04-03T04:28:55;2.30;99.90
1015;DHT22;8170;48.118;11.628;2023-04-03T04:29:58;2.30;99.90
1015;DHT22;8170;48.118;11.628;2023-04-03T04:31:01;2.30;99.90
1015;DHT22;8170;48.118;11.628;2023-04-03T04:32:05;2.30;99.90
1015;DHT22;8170;48.118;11.628;2023-04-03T04:33:07;2.40;99.90
1015;DHT22;8170;48.118;11.628;2023-04-03T04:34:11;2.40;99.90
1015;DHT22;8170;48.118;11.628;2023-04-03T04:35:14;2.30;99.90
1015;DHT22;8170;48.118;11.628;2023-04-03T04:36:20;2.30;99.90
1015;DHT22;8170;48.118;11.628;2023-04-03T04:37:23;2.30;99.90
1015;DHT22;8170;48.118;11.628;2023-04-03T04:38:27;2.30;99.90
1015;DHT22;8170;48.118;11.628;2023-04-03T04:39:29;2.30;99.90
1015;DHT22;8170;48.118;11.628;2023-04-03T04:40:33;2.30;99.90
1015;DHT22;8170;48.118;11.628;2023-04-03T04:41:35;2.30;99.90
1015;DHT22;8170;48.118;11.628;2023-04-03T04:42:41;2.30;99.90
1015;DHT22;8170;48.118;11.628;2023-04-03T04:43:43;2.30;99.90
1015;DHT22;8170;48.118;11.628;2023-04-03T04:44:47;2.30;99.90
1015;DHT22;8170;48.118;11.628;2023-04-03T04:46:00;2.30;99.90
1015;DHT22;8170;48.118;11.628;2023-04-03T04:47:04;2.20;99.90
1015;DHT22;8170;48.118;11.628;2023-04-03T04:48:07;2.20;99.90
1015;DHT22;8170;48.118;11.628;2023-04-03T04:49:09;2.20;99.90
1015;DHT22;8170;48.118;11.628;2023-04-03T04:50:13;2.30;99.90
1015;DHT22;8170;48.118;11.628;2023-04-03T04:51:16;2.20;99.90
1015;DHT22;8170;48.118;11.628;2023-04-03T04:52:18;2.20;99.90
1015;DHT22;8170;48.118;11.628;2023-04-03T04:53:22;2.20;99.90
1015;DHT22;8170;48.118;11.628;2023-04-03T04:54:24;2.20;99.90
1015;DHT22;8170;48.118;11.628;2023-04-03T04:55:27;2.20;99.90
1015;DHT22;8170;48.118;11.628;2023-04-03T04:57:42;2.20;99.90
1015;DHT22;8170;48.118;11.628;2023-04-03T04:58:46;2.20;99.90
1015;DHT22;8170;48.118;11.628;2023-04-03T04:59:49;2.20;99.90
1015;DHT22;8170;48.118;11.628;2023-04-03T05:00:58;2.20;99.90
1015;DHT22;8170;48.118;11.628;2023-04-03T05:02:00;2.20;99.90
1015;DHT22;8170;48.118;11.628;2023-04-03T05:03:04;2.20;99.90
1015;DHT22;8170;48.118;11.628;2023-04-03T05:04:07;2.20;99.90
1015;DHT22;8170;48.118;11.628;2023-04-03T05:05:13;2.20;99.90
1015;DHT22;8170;48.118;11.628;2023-04-03T05:06:16;2.20;99.90
1015;DHT22;8170;48.118;11.628;2023-04-03T05:07:20;2.10;99.90
1015;DHT22;8170;48.118;11.628;2023-04-03T05:08:23;2.10;99.90
1015;DHT22;8170;48.118;11.628;2023-04-03T05:09:26;2.20;99.90
1015;DHT22;8170;48.118;11.628;2023-04-03T05:10:30;2.20;99.90
1015;DHT22;8170;48.118;11.628;2023-04-03T05:11:33;2.20;99.90
1015;DHT22;8170;48.118;11.628;2023-04-03T05:12:36;2.20;99.90
1015;DHT22;8170;48.118;11.628;2023-04-03T05:13:41;2.20;99.90
1015;DHT22;8170;48.118;11.628;2023-04-03T05:14:43;2.20;99.90
1015;DHT22;8170;48.118;11.628;2023-04-03T05:15:46;2.20;99.90
1015;DHT22;8170;48.118;11.628;2023-04-03T05:16:49;2.20;99.90
1015;DHT22;8170;48.118;11.628;2023-04-03T05:17:56;2.20;99.90
1015;DHT22;8170;48.118;11.628;2023-04-03T05:18:58;2.20;99.90
1015;DHT22;8170;48.118;11.628;2023-04-03T05:20:03;2.20;99.90
1015;DHT22;8170;48.118;11.628;2023-04-03T05:21:06;2.20;99.90
1015;DHT22;8170;48.118;11.628;2023-04-03T05:22:09;2.20;99.90
1015;DHT22;8170;48.118;11.628;2023-04-03T05:23:12;2.20;99.90
1015;DHT22;8170;48.118;11.628;2023-04-03T05:24:15;2.20;99.90
1015;DHT22;8170;48.118;11.628;2023-04-03T05:25:18;2.20;99.90
1015;DHT22;8170;48.118;11.628;2023-04-03T05:26:20;2.20;99.90
1015;DHT22;8170;48.118;11.628;2023-04-03T05:27:24;2.20;99.90
1015;DHT22;8170;48.118;11.628;2023-04-03T05:28:31;2.20;99.90
1015;DHT22;8170;48.118;11.628;2023-04-03T05:29:35;2.20;99.90
1015;DHT22;8170;48.118;11.628;2023-04-03T05:30:39;2.30;99.90
1015;DHT22;8170;48.118;11.628;2023-04-03T05:31:42;2.30;99.90
1015;DHT22;8170;48.118;11.628;2023-04-03T05:32:46;2.30;99.90
1015;DHT22;8170;48.118;11.628;2023-04-03T05:34:05;2.30;99.90
1015;DHT22;8170;48.118;11.628;2023-04-03T05:35:10;2.30;99.90
1015;DHT22;8170;48.118;11.628;2023-04-03T05:36:14;2.30;99.90
1015;DHT22;8170;48.118;11.628;2023-04-03T05:37:21;2.30;99.90
1015;DHT22;8170;48.118;11.628;2023-04-03T05:38:26;2.30;99.90
1015;DHT22;8170;48.118;11.628;2023-04-03T05:39:30;2.20;99.90
1015;DHT22;8170;48.118;11.628;2023-04-03T05:40:36;2.20;99.90
1015;DHT22;8170;48.118;11.628;2023-04-03T05:41:38;2.20;99.90
1015;DHT22;8170;48.118;11.628;2023-04-03T05:42:41;2.30;99.90
1015;DHT22;8170;48.118;11.628;2023-04-03T05:43:44;2.20;99.90
1015;DHT22;8170;48.118;11.628;2023-04-03T05:44:49;2.20;99.90
1015;DHT22;8170;48.118;11.628;2023-04-03T05:45:52;2.20;99.90
1015;DHT22;8170;48.118;11.628;2023-04-03T05:46:57;2.30;99.90
1015;DHT22;8170;48.118;11.628;2023-04-03T05:47:59;2.20;99.90
1015;DHT22;8170;48.118;11.628;2023-04-03T05:49:04;2.30;99.90
1015;DHT22;8170;48.118;11.628;2023-04-03T05:50:10;2.30;99.90
1015;DHT22;8170;48.118;11.628;2023-04-03T05:51:15;2.30;99.90
1015;DHT22;8170;48.118;11.628;2023-04-03T05:52:22;2.30;99.90
1015;DHT22;8170;48.118;11.628;2023-04-03T05:53:28;2.30;99.90
1015;DHT22;8170;48.118;11.628;2023-04-03T05:54:35;2.30;99.90
1015;DHT22;8170;48.118;11.628;2023-04-03T05:55:49;2.30;99.90
1015;DHT22;8170;48.118;11.628;2023-04-03T05:56:53;2.30;99.90
1015;DHT22;8170;48.118;11.628;2023-04-03T05:57:56;2.30;99.90
1015;DHT22;8170;48.118;11.628;2023-04-03T05:58:59;2.30;99.90
1015;DHT22;8170;48.118;11.628;2023-04-03T06:00:04;2.30;99.90
1015;DHT22;8170;48.118;11.628;2023-04-03T06:01:14;2.40;99.90
1015;DHT22;8170;48.118;11.628;2023-04-03T06:02:19;2.40;99.90
1015;DHT22;8170;48.118;11.628;2023-04-03T06:03:24;2.40;99.90
1015;DHT22;8170;48.118;11.628;2023-04-03T06:04:26;2.40;99.90
1015;DHT22;8170;48.118;11.628;2023-04-03T06:05:29;2.40;99.90
1015;DHT22;8170;48.118;11.628;2023-04-03T06:06:46;2.50;99.90
1015;DHT22;8170;48.118;11.628;2023-04-03T06:07:50;2.50;99.90
1015;DHT22;8170;48.118;11.628;2023-04-03T06:08:52;2.40;99.90
1015;DHT22;8170;48.118;11.628;2023-04-03T06:09:56;2.40;99.90
1015;DHT22;8170;48.118;11.628;2023-04-03T06:10:58;2.40;99.90
1015;DHT22;8170;48.118;11.628;2023-04-03T06:12:03;2.40;99.90
1015;DHT22;8170;48.118;11.628;2023-04-03T06:13:06;2.50;99.90
1015;DHT22;8170;48.118;11.628;2023-04-03T06:14:10;2.50;99.90
1015;DHT22;8170;48.118;11.628;2023-04-03T06:15:14;2.50;99.90
1015;DHT22;8170;48.118;11.628;2023-04-03T06:16:18;2.50;99.90
1015;DHT22;8170;48.118;11.628;2023-04-03T06:17:21;2.50;99.90
1015;DHT22;8170;48.118;11.628;2023-04-03T06:18:24;2.40;99.90
1015;DHT22;8170;48.118;11.628;2023-04-03T06:19:27;2.50;99.90
1015;DHT22;8170;48.118;11.628;2023-04-03T06:20:31;2.40;99.90
1015;DHT22;8170;48.118;11.628;2023-04-03T06:21:34;2.50;99.90
1015;DHT22;8170;48.118;11.628;2023-04-03T06:22:37;2.50;99.90
1015;DHT22;8170;48.118;11.628;2023-04-03T06:23:40;2.50;99.90
1015;DHT22;8170;48.118;11.628;2023-04-03T06:24:44;2.50;99.90
1015;DHT22;8170;48.118;11.628;2023-04-03T06:25:47;2.50;99.90
1015;DHT22;8170;48.118;11.628;2023-04-03T06:26:50;2.60;99.90
1015;DHT22;8170;48.118;11.628;2023-04-03T06:27:54;2.50;99.90
1015;DHT22;8170;48.118;11.628;2023-04-03T06:28:57;2.50;99.90
1015;DHT22;8170;48.118;11.628;2023-04-03T06:30:00;2.60;99.90
1015;DHT22;8170;48.118;11.628;2023-04-03T06:31:04;2.60;99.90
1015;DHT22;8170;48.118;11.628;2023-04-03T06:32:07;2.60;99.90
1015;DHT22;8170;48.118;11.628;2023-04-03T06:33:10;2.60;99.90
1015;DHT22;8170;48.118;11.628;2023-04-03T06:34:13;2.60;99.90
1015;DHT22;8170;48.118;11.628;2023-04-03T06:35:17;2.60;99.90
1015;DHT22;8170;48.118;11.628;2023-04-03T06:36:20;2.70;99.90
1015;DHT22;8170;48.118;11.628;2023-04-03T06:37:24;2.60;99.90
1015;DHT22;8170;48.118;11.628;2023-04-03T06:38:27;2.70;99.90
1015;DHT22;8170;48.118;11.628;2023-04-03T06:39:30;2.70;99.90
1015;DHT22;8170;48.118;11.628;2023-04-03T06:40:34;2.70;99.90
1015;DHT22;8170;48.118;11.628;2023-04-03T06:41:38;2.80;99.90
1015;DHT22;8170;48.118;11.628;2023-04-03T06:42:40;2.80;99.90
1015;DHT22;8170;48.118;11.628;2023-04-03T06:43:46;2.70;99.90
1015;DHT22;8170;48.118;11.628;2023-04-03T06:44:49;2.70;99.90
1015;DHT22;8170;48.118;11.628;2023-04-03T06:45:51;2.80;99.90
1015;DHT22;8170;48.118;11.628;2023-04-03T06:46:56;2.80;99.90
1015;DHT22;8170;48.118;11.628;2023-04-03T06:47:59;2.80;99.90
1015;DHT22;8170;48.118;11.628;2023-04-03T06:49:03;2.80;99.90
1015;DHT22;8170;48.118;11.628;2023-04-03T06:50:06;2.80;99.90
1015;DHT22;8170;48.118;11.628;2023-04-03T06:51:16;2.80;99.90
1015;DHT22;8170;48.118;11.628;2023-04-03T06:52:21;2.80;99.90
1015;DHT22;8170;48.118;11.628;2023-04-03T06:53:23;2.80;99.90
1015;DHT22;8170;48.118;11.628;2023-04-03T06:54:27;2.80;99.90
1015;DHT22;8170;48.118;11.628;2023-04-03T06:55:29;2.90;99.90
1015;DHT22;8170;48.118;11.628;2023-04-03T06:56:32;2.90;99.90
1015;DHT22;8170;48.118;11.628;2023-04-03T06:57:35;2.90;99.90
1015;DHT22;8170;48.118;11.628;2023-04-03T06:58:38;2.90;99.90
1015;DHT22;8170;48.118;11.628;2023-04-03T06:59:40;2.90;99.90
1015;DHT22;8170;48.118;11.628;2023-04-03T07:00:43;2.90;99.90
1015;DHT22;8170;48.118;11.628;2023-04-03T07:01:46;3.00;99.90
1015;DHT22;8170;48.118;11.628;2023-04-03T07:02:52;3.00;99.90
1015;DHT22;8170;48.118;11.628;2023-04-03T07:03:56;3.00;99.90